createdAt,value
2018-07-31T00:00:24.646Z,17.60
2018-07-31T00:01:24.623Z,19.50
2018-07-31T00:02:24.594Z,18.90
2018-07-31T00:03:24.598Z,18.60
2018-07-31T00:04:24.552Z,18.40
2018-07-31T00:05:24.510Z,19.00
2018-07-31T00:06:24.503Z,20.20
2018-07-31T00:07:24.486Z,21.70
2018-07-31T00:08:24.457Z,22.00
2018-07-31T00:09:24.416Z,25.10
2018-07-31T00:10:24.428Z,23.50
2018-07-31T00:11:24.391Z,21.20
2018-07-31T00:12:24.371Z,25.20
2018-07-31T00:13:24.326Z,25.80
2018-07-31T00:14:24.330Z,26.20
2018-07-31T00:15:24.300Z,25.10
2018-07-31T00:16:24.258Z,21.70
2018-07-31T00:17:24.239Z,25.10
2018-07-31T00:18:24.208Z,26.80
2018-07-31T00:19:24.195Z,26.90
2018-07-31T00:20:24.186Z,24.20
2018-07-31T00:21:24.166Z,28.80
2018-07-31T00:22:24.125Z,30.40
2018-07-31T00:23:24.119Z,27.90
2018-07-31T00:24:24.070Z,28.90
2018-07-31T00:25:24.068Z,32.80
2018-07-31T00:26:24.045Z,37.70
2018-07-31T00:27:24.021Z,35.60
2018-07-31T00:28:24.004Z,36.80
2018-07-31T00:29:23.969Z,41.50
2018-07-31T00:30:23.946Z,39.40
2018-07-31T00:31:23.904Z,42.30
2018-07-31T00:32:23.908Z,41.90
2018-07-31T00:33:23.886Z,37.20
2018-07-31T00:34:23.841Z,38.40
2018-07-31T00:35:23.836Z,40.30
2018-07-31T00:36:23.794Z,41.90
2018-07-31T00:37:23.768Z,43.50
2018-07-31T00:38:23.758Z,43.80
2018-07-31T00:39:23.738Z,42.20
2018-07-31T00:40:23.722Z,39.90
2018-07-31T00:41:23.691Z,42.90
2018-07-31T00:42:23.670Z,40.40
2018-07-31T00:43:23.644Z,40.70
2018-07-31T00:44:23.600Z,41.00
2018-07-31T00:45:23.583Z,41.10
2018-07-31T00:46:23.573Z,41.00
2018-07-31T00:47:23.548Z,39.50
2018-07-31T00:48:23.527Z,41.20
2018-07-31T00:49:23.504Z,40.30
2018-07-31T00:50:23.477Z,38.00
2018-07-31T00:51:23.449Z,38.70
2018-07-31T00:52:23.430Z,36.60
2018-07-31T00:53:23.379Z,35.60
2018-07-31T00:54:23.385Z,37.50
2018-07-31T00:55:23.364Z,39.20
2018-07-31T00:56:23.317Z,38.90
2018-07-31T00:57:23.307Z,39.00
2018-07-31T00:58:23.283Z,37.70
2018-07-31T00:59:23.263Z,39.10
2018-07-31T01:00:23.239Z,37.40
2018-07-31T01:01:23.189Z,38.10
2018-07-31T01:02:23.182Z,39.00
2018-07-31T01:03:23.166Z,39.10
2018-07-31T01:04:23.139Z,38.40
2018-07-31T01:05:23.114Z,39.50
2018-07-31T01:06:23.067Z,39.30
2018-07-31T01:07:23.047Z,40.60
2018-07-31T01:08:23.047Z,37.20
2018-07-31T01:09:23.023Z,39.20
2018-07-31T01:10:23.003Z,40.30
2018-07-31T01:11:22.977Z,36.00
2018-07-31T01:12:22.946Z,35.10
2018-07-31T01:13:22.933Z,34.40
2018-07-31T01:14:22.908Z,30.70
2018-07-31T01:15:22.875Z,32.20
2018-07-31T01:16:22.860Z,34.70
2018-07-31T01:17:22.829Z,36.50
2018-07-31T01:18:22.806Z,33.60
2018-07-31T01:19:22.777Z,34.80
2018-07-31T01:20:22.760Z,35.50
2018-07-31T01:21:22.734Z,34.80
2018-07-31T01:22:22.714Z,39.00
2018-07-31T01:23:22.691Z,39.70
2018-07-31T01:24:22.659Z,39.70
2018-07-31T01:25:22.642Z,40.30
2018-07-31T01:26:22.612Z,41.20
2018-07-31T01:27:22.590Z,39.90
2018-07-31T01:28:22.570Z,40.20
2018-07-31T01:29:22.541Z,40.60
2018-07-31T01:30:22.557Z,42.10
2018-07-31T01:31:22.498Z,42.50
2018-07-31T01:32:22.452Z,42.40
2018-07-31T01:33:22.445Z,42.30
2018-07-31T01:34:22.428Z,41.40
2018-07-31T01:35:22.377Z,41.30
2018-07-31T01:36:22.374Z,43.00
2018-07-31T01:37:22.344Z,43.20
2018-07-31T01:38:22.326Z,43.90
2018-07-31T01:39:22.304Z,46.90
2018-07-31T01:40:22.274Z,44.50
2018-07-31T01:41:22.236Z,43.20
2018-07-31T01:42:22.229Z,45.70
2018-07-31T01:43:22.202Z,44.70
2018-07-31T01:44:22.165Z,45.50
2018-07-31T01:45:22.164Z,44.50
2018-07-31T01:46:22.125Z,44.40
2018-07-31T01:47:22.088Z,42.10
2018-07-31T01:48:22.079Z,43.60
2018-07-31T01:49:22.057Z,47.10
2018-07-31T01:50:22.035Z,46.80
2018-07-31T01:51:22.017Z,47.20
2018-07-31T01:52:21.988Z,49.20
2018-07-31T01:53:21.958Z,52.00
2018-07-31T01:54:21.932Z,49.00
2018-07-31T01:55:21.915Z,50.20
2018-07-31T01:56:21.889Z,48.10
2018-07-31T01:57:21.903Z,45.80
2018-07-31T01:58:21.841Z,45.70
2018-07-31T01:59:21.822Z,44.90
2018-07-31T02:00:21.789Z,43.00
2018-07-31T02:01:21.768Z,46.30
2018-07-31T02:02:21.745Z,44.90
2018-07-31T02:03:21.720Z,46.00
2018-07-31T02:04:21.697Z,44.40
2018-07-31T02:05:21.676Z,43.90
2018-07-31T02:06:21.662Z,44.00
2018-07-31T02:07:21.617Z,45.90
2018-07-31T02:08:21.600Z,44.30
2018-07-31T02:09:21.572Z,44.50
2018-07-31T02:10:21.551Z,43.60
2018-07-31T02:11:21.526Z,44.70
2018-07-31T02:12:21.503Z,38.50
2018-07-31T02:13:21.454Z,43.00
2018-07-31T02:14:21.451Z,43.00
2018-07-31T02:15:21.431Z,40.40
2018-07-31T02:16:21.407Z,42.00
2018-07-31T02:17:21.426Z,42.40
2018-07-31T02:18:21.337Z,41.70
2018-07-31T02:19:21.327Z,41.80
2018-07-31T02:20:21.291Z,45.10
2018-07-31T02:21:21.285Z,44.40
2018-07-31T02:22:21.266Z,45.30
2018-07-31T02:23:21.230Z,44.10
2018-07-31T02:24:21.209Z,41.70
2018-07-31T02:25:21.187Z,43.20
2018-07-31T02:26:21.161Z,45.60
2018-07-31T02:27:21.141Z,45.10
2018-07-31T02:28:21.259Z,44.60
2018-07-31T02:29:21.089Z,45.00
2018-07-31T02:30:21.065Z,43.00
2018-07-31T02:31:21.025Z,42.90
2018-07-31T02:32:21.017Z,46.30
2018-07-31T02:33:20.998Z,42.60
2018-07-31T02:34:20.972Z,41.20
2018-07-31T02:35:21.152Z,40.80
2018-07-31T02:36:20.917Z,43.90
2018-07-31T02:37:20.881Z,42.80
2018-07-31T02:38:20.873Z,41.30
2018-07-31T02:39:20.849Z,42.80
2018-07-31T02:40:20.832Z,38.40
2018-07-31T02:41:20.803Z,41.50
2018-07-31T02:42:20.778Z,39.70
2018-07-31T02:43:20.768Z,39.90
2018-07-31T02:44:20.709Z,41.10
2018-07-31T02:45:20.711Z,39.70
2018-07-31T02:46:20.676Z,36.00
2018-07-31T02:47:20.652Z,36.10
2018-07-31T02:48:20.633Z,36.20
2018-07-31T02:49:20.606Z,35.50
2018-07-31T02:50:20.579Z,36.10
2018-07-31T02:51:20.566Z,43.00
2018-07-31T02:52:20.534Z,43.20
2018-07-31T02:53:20.506Z,46.40
2018-07-31T02:54:20.487Z,47.00
2018-07-31T02:55:20.460Z,46.40
2018-07-31T02:56:20.447Z,46.00
2018-07-31T02:57:20.418Z,47.10
2018-07-31T02:58:20.402Z,44.20
2018-07-31T02:59:20.366Z,44.60
2018-07-31T03:00:20.338Z,44.20
2018-07-31T03:01:20.321Z,43.40
2018-07-31T03:02:20.298Z,39.60
2018-07-31T03:03:20.269Z,42.40
2018-07-31T03:04:20.249Z,43.20
2018-07-31T03:05:20.229Z,43.10
2018-07-31T03:06:20.205Z,39.20
2018-07-31T03:07:20.173Z,40.80
2018-07-31T03:08:20.148Z,39.90
2018-07-31T03:09:20.127Z,43.30
2018-07-31T03:10:20.096Z,45.40
2018-07-31T03:11:20.076Z,44.00
2018-07-31T03:12:20.035Z,42.00
2018-07-31T03:13:20.028Z,41.90
2018-07-31T03:14:19.998Z,43.50
2018-07-31T03:15:19.988Z,40.80
2018-07-31T03:16:19.942Z,41.90
2018-07-31T03:17:19.933Z,41.90
2018-07-31T03:18:19.918Z,40.90
2018-07-31T03:19:19.886Z,42.10
2018-07-31T03:20:19.839Z,40.50
2018-07-31T03:21:19.837Z,42.30
2018-07-31T03:22:19.792Z,42.60
2018-07-31T03:23:19.795Z,40.40
2018-07-31T03:24:19.761Z,39.70
2018-07-31T03:25:19.739Z,40.50
2018-07-31T03:26:19.717Z,40.20
2018-07-31T03:27:19.696Z,40.20
2018-07-31T03:28:19.735Z,41.30
2018-07-31T03:29:19.646Z,39.20
2018-07-31T03:30:19.619Z,39.30
2018-07-31T03:31:19.596Z,39.50
2018-07-31T03:32:19.575Z,39.40
2018-07-31T03:33:19.549Z,41.10
2018-07-31T03:34:19.526Z,39.10
2018-07-31T03:35:19.483Z,40.70
2018-07-31T03:36:19.477Z,38.80
2018-07-31T03:37:19.452Z,38.70
2018-07-31T03:38:19.413Z,40.20
2018-07-31T03:39:19.404Z,40.30
2018-07-31T03:40:19.384Z,40.30
2018-07-31T03:41:19.334Z,39.70
2018-07-31T03:42:19.309Z,40.70
2018-07-31T03:43:19.312Z,41.60
2018-07-31T03:44:19.285Z,40.50
2018-07-31T03:45:19.264Z,41.20
2018-07-31T03:46:19.241Z,41.90
2018-07-31T03:47:19.213Z,41.70
2018-07-31T03:48:19.180Z,41.30
2018-07-31T03:49:19.160Z,41.40
2018-07-31T03:50:19.117Z,43.50
2018-07-31T03:51:19.116Z,40.00
2018-07-31T03:52:19.096Z,44.40
2018-07-31T03:53:19.069Z,44.10
2018-07-31T03:54:19.043Z,43.00
2018-07-31T03:55:19.028Z,46.10
2018-07-31T03:56:19.059Z,44.80
2018-07-31T03:57:18.980Z,44.80
2018-07-31T03:58:18.949Z,46.20
2018-07-31T03:59:18.925Z,46.70
2018-07-31T04:00:18.898Z,45.70
2018-07-31T04:01:18.879Z,47.30
2018-07-31T04:02:18.855Z,49.00
2018-07-31T04:03:18.830Z,47.40
2018-07-31T04:04:18.805Z,49.50
2018-07-31T04:05:18.795Z,46.40
2018-07-31T04:06:18.757Z,47.70
2018-07-31T04:07:18.742Z,50.40
2018-07-31T04:08:18.708Z,50.20
2018-07-31T04:09:18.683Z,48.70
2018-07-31T04:10:18.664Z,47.70
2018-07-31T04:11:18.637Z,48.00
2018-07-31T04:12:18.607Z,48.70
2018-07-31T04:13:18.586Z,48.60
2018-07-31T04:14:18.564Z,47.90
2018-07-31T04:15:18.544Z,50.40
2018-07-31T04:16:18.518Z,49.60
2018-07-31T04:17:18.491Z,50.00
2018-07-31T04:18:18.462Z,48.60
2018-07-31T04:19:18.444Z,49.10
2018-07-31T04:20:18.421Z,49.50
2018-07-31T04:21:18.397Z,49.30
2018-07-31T04:22:18.372Z,47.40
2018-07-31T04:23:18.347Z,50.00
2018-07-31T04:24:18.322Z,49.90
2018-07-31T04:25:18.298Z,50.60
2018-07-31T04:26:18.276Z,48.80
2018-07-31T04:27:18.249Z,49.40
2018-07-31T04:28:18.229Z,49.40
2018-07-31T04:29:18.201Z,49.50
2018-07-31T04:30:18.178Z,49.60
2018-07-31T04:31:18.159Z,49.90
2018-07-31T04:32:18.129Z,47.90
2018-07-31T04:33:18.109Z,47.40
2018-07-31T04:34:18.063Z,47.10
2018-07-31T04:35:18.061Z,47.30
2018-07-31T04:36:18.088Z,46.10
2018-07-31T04:37:18.011Z,47.20
2018-07-31T04:38:18.071Z,46.00
2018-07-31T04:39:17.948Z,45.40
2018-07-31T04:40:17.942Z,44.20
2018-07-31T04:41:18.015Z,42.30
2018-07-31T04:42:17.931Z,43.20
2018-07-31T04:43:17.865Z,43.20
2018-07-31T04:44:17.840Z,43.50
2018-07-31T04:45:17.813Z,43.00
2018-07-31T04:46:17.790Z,42.00
2018-07-31T04:47:17.772Z,41.00
2018-07-31T04:48:17.751Z,40.40
2018-07-31T04:49:17.707Z,41.60
2018-07-31T04:50:17.723Z,39.60
2018-07-31T04:51:17.653Z,38.60
2018-07-31T04:52:17.653Z,37.80
2018-07-31T04:53:17.628Z,36.80
2018-07-31T04:54:17.602Z,36.10
2018-07-31T04:55:17.584Z,36.70
2018-07-31T04:56:17.534Z,36.60
2018-07-31T04:57:17.526Z,37.00
2018-07-31T04:58:17.502Z,37.00
2018-07-31T04:59:17.481Z,36.60
2018-07-31T05:00:17.456Z,36.30
2018-07-31T05:01:17.435Z,36.70
2018-07-31T05:02:17.404Z,35.40
2018-07-31T05:03:17.382Z,34.60
2018-07-31T05:04:17.395Z,35.20
2018-07-31T05:05:17.330Z,34.70
2018-07-31T05:06:17.316Z,34.30
2018-07-31T05:07:17.286Z,35.50
2018-07-31T05:08:17.243Z,35.60
2018-07-31T05:09:17.239Z,34.90
2018-07-31T05:10:17.217Z,33.10
2018-07-31T05:11:17.187Z,33.30
2018-07-31T05:12:17.168Z,34.40
2018-07-31T05:13:17.125Z,34.50
2018-07-31T05:14:17.116Z,33.30
2018-07-31T05:15:17.098Z,32.50
2018-07-31T05:16:17.070Z,32.40
2018-07-31T05:17:17.027Z,34.00
2018-07-31T05:18:17.059Z,34.30
2018-07-31T05:19:17.002Z,33.50
2018-07-31T05:20:16.954Z,35.40
2018-07-31T05:21:16.953Z,35.30
2018-07-31T05:22:16.910Z,35.80
2018-07-31T05:23:16.906Z,33.60
2018-07-31T05:24:16.882Z,34.60
2018-07-31T05:25:16.891Z,33.20
2018-07-31T05:26:16.832Z,33.60
2018-07-31T05:27:16.810Z,32.50
2018-07-31T05:28:16.757Z,33.10
2018-07-31T05:29:16.763Z,32.00
2018-07-31T05:30:16.730Z,31.90
2018-07-31T05:31:16.707Z,33.10
2018-07-31T05:32:16.689Z,33.40
2018-07-31T05:33:16.662Z,32.00
2018-07-31T05:34:16.637Z,33.30
2018-07-31T05:35:16.610Z,33.60
2018-07-31T05:36:16.592Z,34.00
2018-07-31T05:37:16.559Z,33.90
2018-07-31T05:38:16.539Z,34.40
2018-07-31T05:39:16.519Z,34.70
2018-07-31T05:40:16.485Z,34.40
2018-07-31T05:41:16.446Z,34.00
2018-07-31T05:42:16.444Z,34.30
2018-07-31T05:43:16.419Z,33.70
2018-07-31T05:44:16.394Z,34.30
2018-07-31T05:45:16.370Z,32.90
2018-07-31T05:46:16.359Z,35.70
2018-07-31T05:47:16.321Z,36.40
2018-07-31T05:48:16.302Z,36.80
2018-07-31T05:49:16.260Z,33.30
2018-07-31T05:50:16.231Z,34.80
2018-07-31T05:51:16.225Z,36.00
2018-07-31T05:52:16.199Z,36.30
2018-07-31T05:53:16.171Z,37.30
2018-07-31T05:54:16.153Z,37.10
2018-07-31T05:55:16.132Z,35.80
2018-07-31T05:56:16.108Z,34.20
2018-07-31T05:57:16.080Z,33.30
2018-07-31T05:58:16.042Z,30.90
2018-07-31T05:59:16.034Z,33.00
2018-07-31T06:00:16.009Z,32.80
2018-07-31T06:01:15.982Z,32.70
2018-07-31T06:02:15.936Z,33.70
2018-07-31T06:03:15.938Z,32.20
2018-07-31T06:04:15.896Z,32.20
2018-07-31T06:05:15.885Z,31.50
2018-07-31T06:06:15.861Z,30.30
2018-07-31T06:07:15.827Z,30.30
2018-07-31T06:08:15.812Z,30.70
2018-07-31T06:09:15.786Z,32.30
2018-07-31T06:10:15.773Z,30.40
2018-07-31T06:11:15.784Z,30.80
2018-07-31T06:12:15.723Z,30.40
2018-07-31T06:13:15.676Z,30.80
2018-07-31T06:14:15.650Z,29.90
2018-07-31T06:15:15.700Z,29.00
2018-07-31T06:16:15.617Z,30.50
2018-07-31T06:17:15.604Z,29.70
2018-07-31T06:18:15.579Z,30.70
2018-07-31T06:19:15.555Z,31.20
2018-07-31T06:20:15.506Z,28.50
2018-07-31T06:21:15.486Z,30.30
2018-07-31T06:22:15.478Z,28.90
2018-07-31T06:23:15.449Z,31.20
2018-07-31T06:24:15.437Z,30.40
2018-07-31T06:25:15.388Z,29.90
2018-07-31T06:26:15.382Z,30.00
2018-07-31T06:27:15.362Z,29.70
2018-07-31T06:28:15.339Z,29.20
2018-07-31T06:29:15.310Z,28.70
2018-07-31T06:30:15.286Z,25.90
2018-07-31T06:31:15.245Z,25.50
2018-07-31T06:32:15.237Z,25.20
2018-07-31T06:33:15.215Z,26.00
2018-07-31T06:34:15.195Z,25.00
2018-07-31T06:35:15.167Z,21.50
2018-07-31T06:36:15.120Z,20.40
2018-07-31T06:37:15.122Z,20.00
2018-07-31T06:38:15.099Z,21.30
2018-07-31T06:39:15.068Z,18.40
2018-07-31T06:40:15.049Z,18.60
2018-07-31T06:41:15.028Z,17.90
2018-07-31T06:42:15.002Z,18.30
2018-07-31T06:43:14.977Z,19.20
2018-07-31T06:44:14.931Z,18.40
2018-07-31T06:45:14.930Z,19.20
2018-07-31T06:46:14.901Z,19.60
2018-07-31T06:47:14.878Z,18.40
2018-07-31T06:48:14.853Z,19.80
2018-07-31T06:49:14.822Z,19.00
2018-07-31T06:50:14.789Z,19.50
2018-07-31T06:51:14.788Z,18.70
2018-07-31T06:52:14.757Z,18.40
2018-07-31T06:53:14.737Z,17.90
2018-07-31T06:54:14.716Z,18.90
2018-07-31T06:55:14.687Z,18.80
2018-07-31T06:56:14.663Z,18.50
2018-07-31T06:57:14.620Z,18.80
2018-07-31T06:58:14.614Z,19.70
2018-07-31T06:59:14.596Z,18.20
2018-07-31T07:00:14.568Z,18.00
2018-07-31T07:01:14.547Z,17.60
2018-07-31T07:02:14.505Z,18.70
2018-07-31T07:03:14.498Z,17.60
2018-07-31T07:04:14.458Z,17.90
2018-07-31T07:05:14.429Z,18.40
2018-07-31T07:06:14.430Z,18.70
2018-07-31T07:07:14.390Z,19.10
2018-07-31T07:08:14.379Z,18.60
2018-07-31T07:09:14.403Z,18.10
2018-07-31T07:10:14.312Z,18.10
2018-07-31T07:11:14.318Z,18.60
2018-07-31T07:12:14.265Z,18.20
2018-07-31T07:13:14.260Z,21.00
2018-07-31T07:14:14.245Z,24.50
2018-07-31T07:15:14.215Z,25.80
2018-07-31T07:16:14.175Z,22.60
2018-07-31T07:17:14.162Z,20.50
2018-07-31T07:18:14.146Z,20.50
2018-07-31T07:19:14.118Z,20.80
2018-07-31T07:20:14.076Z,20.90
2018-07-31T07:21:14.066Z,22.60
2018-07-31T07:22:14.032Z,20.40
2018-07-31T07:23:14.025Z,22.30
2018-07-31T07:24:13.978Z,22.00
2018-07-31T07:25:13.970Z,21.60
2018-07-31T07:26:13.946Z,20.40
2018-07-31T07:27:13.925Z,21.60
2018-07-31T07:28:13.902Z,21.70
2018-07-31T07:29:13.880Z,20.50
2018-07-31T07:30:13.855Z,21.40
2018-07-31T07:31:13.827Z,21.40
2018-07-31T07:32:13.811Z,19.80
2018-07-31T07:33:13.781Z,20.50
2018-07-31T07:34:13.742Z,20.80
2018-07-31T07:35:13.720Z,19.60
2018-07-31T07:36:13.711Z,20.00
2018-07-31T07:37:13.686Z,20.20
2018-07-31T07:38:13.661Z,16.90
2018-07-31T07:39:13.641Z,17.60
2018-07-31T07:40:13.625Z,16.70
2018-07-31T07:41:13.588Z,17.00
2018-07-31T07:42:13.563Z,13.40
2018-07-31T07:43:13.537Z,12.80
2018-07-31T07:44:13.518Z,15.10
2018-07-31T07:45:13.483Z,16.10
2018-07-31T07:46:13.450Z,15.30
2018-07-31T07:47:13.445Z,15.80
2018-07-31T07:48:13.406Z,15.90
2018-07-31T07:49:13.396Z,17.10
2018-07-31T07:50:13.371Z,22.60
2018-07-31T07:51:13.344Z,22.30
2018-07-31T07:52:13.321Z,19.00
2018-07-31T07:53:13.300Z,22.10
2018-07-31T07:54:13.494Z,22.40
2018-07-31T07:55:13.248Z,24.30
2018-07-31T07:56:13.227Z,22.80
2018-07-31T07:57:13.203Z,18.70
2018-07-31T07:58:13.176Z,21.40
2018-07-31T07:59:13.138Z,20.00
2018-07-31T08:00:13.136Z,23.40
2018-07-31T08:01:13.091Z,20.40
2018-07-31T08:02:13.065Z,18.70
2018-07-31T08:03:13.055Z,21.40
2018-07-31T08:04:13.114Z,21.00
2018-07-31T08:05:13.010Z,20.60
2018-07-31T08:06:12.983Z,20.90
2018-07-31T08:07:12.942Z,12.90
2018-07-31T08:08:12.941Z,18.10
2018-07-31T08:09:12.897Z,18.80
2018-07-31T08:10:12.961Z,20.00
2018-07-31T08:11:12.943Z,20.30
2018-07-31T08:12:12.909Z,20.00
2018-07-31T08:13:12.820Z,16.00
2018-07-31T08:14:12.795Z,13.00
2018-07-31T08:15:12.775Z,11.60
2018-07-31T08:16:12.748Z,11.30
2018-07-31T08:17:12.722Z,13.60
2018-07-31T08:18:12.697Z,13.60
2018-07-31T08:19:12.675Z,10.70
2018-07-31T08:20:12.691Z,15.10
2018-07-31T08:21:12.629Z,13.90
2018-07-31T08:22:12.603Z,9.70
2018-07-31T08:23:12.583Z,13.70
2018-07-31T08:24:12.555Z,13.60
2018-07-31T08:25:12.533Z,10.40
2018-07-31T08:26:12.509Z,10.70
2018-07-31T08:27:12.479Z,10.00
2018-07-31T08:28:12.462Z,12.40
2018-07-31T08:29:12.433Z,14.70
2018-07-31T08:30:12.408Z,12.50
2018-07-31T08:31:12.366Z,15.20
2018-07-31T08:32:12.363Z,16.40
2018-07-31T08:33:12.318Z,15.70
2018-07-31T08:34:12.312Z,15.00
2018-07-31T08:35:12.287Z,11.70
2018-07-31T08:36:12.245Z,11.50
2018-07-31T08:37:12.243Z,13.60
2018-07-31T08:38:12.215Z,15.10
2018-07-31T08:39:12.193Z,13.40
2018-07-31T08:40:12.152Z,13.80
2018-07-31T08:41:12.196Z,13.90
2018-07-31T08:42:12.115Z,13.50
2018-07-31T08:43:12.078Z,11.60
2018-07-31T08:44:12.071Z,12.30
2018-07-31T08:45:12.045Z,14.20
2018-07-31T08:46:12.024Z,12.90
2018-07-31T08:47:11.978Z,12.30
2018-07-31T08:48:11.983Z,13.40
2018-07-31T08:49:11.949Z,11.80
2018-07-31T08:50:11.909Z,11.30
2018-07-31T08:51:11.940Z,12.70
2018-07-31T08:52:11.877Z,12.60
2018-07-31T08:53:11.857Z,11.90
2018-07-31T08:54:11.835Z,13.50
2018-07-31T08:55:11.807Z,12.80
2018-07-31T08:56:11.777Z,12.10
2018-07-31T08:57:11.765Z,11.80
2018-07-31T08:58:11.734Z,10.60
2018-07-31T08:59:11.707Z,9.20
2018-07-31T09:00:11.685Z,8.40
2018-07-31T09:01:11.662Z,8.70
2018-07-31T09:02:11.640Z,8.00
2018-07-31T09:03:11.619Z,5.20
2018-07-31T09:04:11.586Z,6.30
2018-07-31T09:05:11.565Z,7.20
2018-07-31T09:06:11.541Z,6.00
2018-07-31T09:07:11.522Z,3.80
2018-07-31T09:08:11.581Z,2.00
2018-07-31T09:09:11.470Z,3.40
2018-07-31T09:10:11.445Z,2.60
2018-07-31T09:11:11.421Z,2.70
2018-07-31T09:21:42.324Z,1.80
2018-07-31T09:21:49.883Z,2.00
2018-07-31T09:22:49.854Z,2.00
2018-07-31T09:23:49.835Z,1.60
2018-07-31T09:24:49.862Z,1.60
2018-07-31T09:25:49.789Z,1.40
2018-07-31T09:26:49.764Z,1.50
2018-07-31T09:27:49.724Z,1.70
2018-07-31T09:28:49.713Z,1.80
2018-07-31T09:29:49.692Z,1.80
2018-07-31T09:30:49.692Z,1.80
2018-07-31T09:31:49.642Z,2.30
2018-07-31T09:32:49.612Z,1.70
2018-07-31T09:33:49.592Z,1.80
2018-07-31T09:34:49.561Z,1.20
2018-07-31T09:35:49.536Z,1.40
2018-07-31T09:36:49.514Z,1.70
2018-07-31T09:37:49.493Z,1.30
2018-07-31T09:38:49.460Z,1.50
2018-07-31T09:39:49.440Z,1.40
2018-07-31T09:40:49.412Z,1.10
2018-07-31T09:41:49.373Z,1.20
2018-07-31T09:42:49.365Z,1.10
2018-07-31T09:43:49.341Z,0.90
2018-07-31T09:44:49.315Z,0.90
2018-07-31T09:45:49.267Z,1.10
2018-07-31T09:46:49.264Z,1.20
2018-07-31T09:47:49.216Z,1.40
2018-07-31T09:48:49.195Z,0.90
2018-07-31T09:49:49.189Z,1.10
2018-07-31T09:50:49.164Z,1.00
2018-07-31T09:51:49.140Z,1.30
2018-07-31T09:59:46.956Z,1.30
2018-07-31T10:00:43.900Z,1.20
2018-07-31T10:01:43.854Z,0.90
2018-07-31T10:02:43.832Z,0.90
2018-07-31T10:03:43.812Z,1.20
2018-07-31T10:04:43.796Z,0.90
2018-07-31T10:05:43.772Z,0.90
2018-07-31T10:06:43.743Z,1.10
2018-07-31T10:07:43.703Z,1.10
2018-07-31T10:08:43.692Z,1.20
2018-07-31T10:09:43.676Z,0.90
2018-07-31T10:10:43.657Z,1.00
2018-07-31T10:11:43.626Z,1.00
2018-07-31T10:12:43.589Z,1.10
2018-07-31T10:13:43.570Z,0.90
2018-07-31T10:14:43.539Z,0.90
2018-07-31T10:15:43.512Z,0.80
2018-07-31T10:16:43.494Z,0.90
2018-07-31T10:17:43.487Z,1.00
2018-07-31T10:18:43.438Z,1.00
2018-07-31T10:19:43.417Z,0.90
2018-07-31T10:20:43.391Z,0.90
2018-07-31T10:21:43.350Z,1.00
2018-07-31T10:22:43.342Z,1.10
2018-07-31T10:23:43.319Z,1.00
2018-07-31T10:24:43.293Z,0.90
2018-07-31T10:25:43.245Z,0.90
2018-07-31T10:26:43.242Z,0.90
2018-07-31T10:27:43.195Z,0.90
2018-07-31T10:28:43.175Z,1.00
2018-07-31T10:29:43.168Z,1.10
2018-07-31T10:30:43.172Z,1.10
2018-07-31T10:31:43.119Z,1.00
2018-07-31T10:32:43.093Z,1.20
2018-07-31T10:33:43.070Z,0.80
2018-07-31T10:34:43.043Z,0.90
2018-07-31T10:35:43.015Z,0.90
2018-07-31T10:36:42.973Z,0.90
2018-07-31T10:37:43.020Z,0.80
2018-07-31T10:38:42.923Z,0.80
2018-07-31T10:39:42.920Z,0.90
2018-07-31T10:40:42.896Z,1.00
2018-07-31T10:41:42.848Z,1.00
2018-07-31T10:42:42.838Z,1.20
2018-07-31T10:43:42.903Z,1.00
2018-07-31T10:44:42.794Z,1.00
2018-07-31T10:45:42.749Z,1.00
2018-07-31T10:46:42.740Z,1.00
2018-07-31T10:47:42.713Z,1.10
2018-07-31T10:48:42.688Z,1.60
2018-07-31T10:49:42.665Z,1.30
2018-07-31T10:50:42.630Z,1.00
2018-07-31T10:51:42.615Z,1.10
2018-07-31T10:52:42.578Z,0.90
2018-07-31T10:53:42.570Z,0.90
2018-07-31T10:54:42.538Z,1.00
2018-07-31T10:55:42.516Z,1.10
2018-07-31T10:56:42.500Z,1.00
2018-07-31T10:57:42.469Z,0.90
2018-07-31T10:58:42.462Z,1.30
2018-07-31T10:59:42.491Z,1.30
2018-07-31T11:00:42.397Z,1.10
2018-07-31T11:01:42.372Z,1.30
2018-07-31T11:02:42.353Z,1.20
2018-07-31T11:03:42.331Z,0.90
2018-07-31T11:04:42.294Z,1.20
2018-07-31T11:05:42.272Z,1.10
2018-07-31T11:06:42.221Z,1.10
2018-07-31T11:07:42.221Z,0.80
2018-07-31T11:08:42.196Z,1.00
2018-07-31T11:09:42.166Z,1.00
2018-07-31T11:10:42.125Z,1.40
2018-07-31T11:11:42.102Z,1.00
2018-07-31T11:12:42.093Z,1.10
2018-07-31T11:13:42.071Z,1.10
2018-07-31T11:14:42.039Z,1.00
2018-07-31T11:15:42.018Z,1.20
2018-07-31T11:16:41.993Z,1.20
2018-07-31T11:17:41.964Z,1.00
2018-07-31T11:18:41.943Z,1.30
2018-07-31T11:19:41.918Z,0.90
2018-07-31T11:20:41.896Z,1.10
2018-07-31T11:21:41.868Z,1.00
2018-07-31T11:22:41.839Z,1.00
2018-07-31T11:23:41.821Z,1.20
2018-07-31T11:24:41.794Z,1.00
2018-07-31T11:25:41.771Z,1.00
2018-07-31T11:26:41.724Z,1.00
2018-07-31T11:27:41.722Z,1.20
2018-07-31T11:28:41.692Z,1.30
2018-07-31T11:29:41.671Z,1.30
2018-07-31T11:30:41.684Z,1.30
2018-07-31T11:31:41.596Z,1.30
2018-07-31T11:32:41.575Z,1.30
2018-07-31T11:33:41.564Z,1.30
2018-07-31T11:34:41.539Z,1.10
2018-07-31T11:35:41.518Z,1.40
2018-07-31T11:36:41.490Z,1.10
2018-07-31T11:37:41.465Z,1.30
2018-07-31T11:38:41.457Z,1.20
2018-07-31T11:39:41.423Z,1.20
2018-07-31T11:40:41.394Z,1.20
2018-07-31T11:41:41.372Z,1.20
2018-07-31T11:42:41.344Z,1.90
2018-07-31T11:43:41.327Z,1.20
2018-07-31T11:44:41.301Z,1.90
2018-07-31T11:45:41.256Z,1.50
2018-07-31T11:46:41.248Z,1.30
2018-07-31T11:47:41.231Z,1.30
2018-07-31T11:48:41.206Z,1.40
2018-07-31T11:49:41.219Z,2.10
2018-07-31T11:50:41.155Z,1.60
2018-07-31T11:51:41.143Z,1.60
2018-07-31T11:52:41.109Z,1.40
2018-07-31T11:53:41.088Z,1.60
2018-07-31T11:54:41.062Z,1.40
2018-07-31T11:55:41.038Z,1.80
2018-07-31T11:56:40.991Z,1.80
2018-07-31T11:57:40.987Z,1.50
2018-07-31T11:58:40.959Z,1.70
2018-07-31T11:59:40.932Z,1.60
2018-07-31T12:00:40.914Z,1.80
2018-07-31T12:01:40.917Z,2.10
2018-07-31T12:02:40.866Z,1.60
2018-07-31T12:03:40.844Z,1.80
2018-07-31T12:04:40.818Z,2.00
2018-07-31T12:05:40.798Z,1.60
2018-07-31T12:06:40.773Z,1.60
2018-07-31T12:07:40.725Z,1.70
2018-07-31T12:08:40.730Z,1.70
2018-07-31T12:09:40.685Z,1.70
2018-07-31T12:10:40.654Z,2.00
2018-07-31T12:11:40.633Z,1.90
2018-07-31T12:12:40.611Z,2.00
2018-07-31T12:13:40.589Z,1.80
2018-07-31T12:14:40.581Z,2.10
2018-07-31T12:15:40.560Z,1.80
2018-07-31T12:16:40.537Z,1.80
2018-07-31T12:17:40.513Z,2.00
2018-07-31T12:18:40.493Z,2.00
2018-07-31T12:19:40.471Z,1.80
2018-07-31T12:20:40.442Z,2.40
2018-07-31T12:21:40.408Z,2.60
2018-07-31T12:22:40.398Z,2.00
2018-07-31T12:23:40.360Z,2.50
2018-07-31T12:24:40.352Z,2.60
2018-07-31T12:25:40.338Z,2.60
2018-07-31T12:26:40.310Z,2.90
2018-07-31T12:27:40.291Z,2.10
2018-07-31T12:28:40.264Z,2.50
2018-07-31T12:29:40.243Z,2.40
2018-07-31T12:30:40.217Z,2.20
2018-07-31T12:31:40.194Z,2.10
2018-07-31T12:32:40.169Z,2.50
2018-07-31T12:33:40.147Z,2.70
2018-07-31T12:34:40.122Z,2.30
2018-07-31T12:35:40.101Z,2.50
2018-07-31T12:36:40.072Z,2.50
2018-07-31T12:37:40.052Z,2.70
2018-07-31T12:38:40.028Z,2.50
2018-07-31T12:39:40.001Z,2.90
2018-07-31T12:40:39.983Z,2.80
2018-07-31T12:41:39.965Z,2.60
2018-07-31T12:42:39.930Z,2.60
2018-07-31T12:43:39.908Z,3.20
2018-07-31T12:44:39.882Z,3.80
2018-07-31T12:45:40.274Z,3.10
2018-07-31T12:46:39.834Z,2.70
2018-07-31T12:47:39.813Z,3.10
2018-07-31T12:48:39.849Z,3.20
2018-07-31T12:49:39.767Z,3.30
2018-07-31T12:50:39.727Z,3.80
2018-07-31T12:51:39.705Z,3.50
2018-07-31T12:52:39.677Z,3.70
2018-07-31T12:53:39.654Z,3.50
2018-07-31T12:54:39.651Z,3.50
2018-07-31T12:55:39.605Z,3.70
2018-07-31T12:56:39.600Z,3.40
2018-07-31T12:57:39.564Z,2.60
2018-07-31T12:58:39.537Z,2.80
2018-07-31T12:59:39.513Z,2.40
2018-07-31T13:00:39.511Z,2.40
2018-07-31T13:01:39.490Z,1.60
2018-07-31T13:02:39.447Z,1.80
2018-07-31T13:03:39.437Z,1.90
2018-07-31T13:04:39.421Z,2.00
2018-07-31T13:05:39.396Z,1.90
2018-07-31T13:06:39.415Z,1.70
2018-07-31T13:07:39.346Z,1.90
2018-07-31T13:09:12.594Z,2.10
2018-07-31T13:09:39.304Z,2.20
2018-07-31T13:10:39.281Z,1.90
2018-07-31T13:11:39.260Z,1.90
2018-07-31T13:12:39.221Z,2.00
2018-07-31T13:13:39.193Z,2.20
2018-07-31T13:14:39.191Z,2.20
2018-07-31T13:15:39.169Z,2.20